Time;durP1;ratioP1;P1;durP2;ratioP2;P2;SDS_P1;SDS_P2;PMS_P1;PMS_P2;Temp;Humidity;BMP_temperature;BMP_pressure;BME280_temperature;BME280_humidity;BME280_pressure;Samples;Min_cycle;Max_cycle;Signal;HPM_P1;HPM_P2
2022/03/15 00:01:04;;;;;;;4.67;2.10;;;10.40;99.90;;;;;;7384913;19;20167;-75
2022/03/15 00:03:30;;;;;;;3.53;2.30;;;10.50;99.90;;;;;;7388811;19;20613;-74
2022/03/15 00:05:56;;;;;;;5.43;2.30;;;10.60;99.90;;;;;;7392301;19;20139;-74
2022/03/15 00:08:22;;;;;;;4.97;2.27;;;10.50;99.90;;;;;;7392035;19;20141;-76
2022/03/15 00:10:49;;;;;;;4.57;2.20;;;10.50;99.90;;;;;;7394145;19;20135;-75
2022/03/15 00:13:20;;;;;;;4.63;2.20;;;10.60;99.90;;;;;;7391995;19;20127;-75
2022/03/15 00:15:48;;;;;;;5.47;1.90;;;10.50;99.90;;;;;;7388445;19;20194;-75
2022/03/15 00:18:14;;;;;;;7.80;2.03;;;10.40;99.90;;;;;;7390370;19;20142;-75
2022/03/15 00:20:39;;;;;;;3.23;2.00;;;10.50;99.90;;;;;;7387947;19;20214;-74
2022/03/15 00:23:05;;;;;;;3.63;2.27;;;10.30;99.90;;;;;;7388516;19;20179;-75
2022/03/15 00:25:31;;;;;;;6.83;2.23;;;10.30;99.90;;;;;;7387701;19;20513;-75
2022/03/15 00:27:57;;;;;;;5.00;1.97;;;10.40;99.90;;;;;;7387460;19;20146;-75
2022/03/15 00:30:24;;;;;;;4.93;2.10;;;10.50;99.90;;;;;;7386288;19;20813;-75
2022/03/15 00:32:50;;;;;;;3.83;2.20;;;10.20;99.90;;;;;;7388226;19;20135;-75
2022/03/15 00:35:18;;;;;;;4.53;2.10;;;10.00;99.90;;;;;;7388902;19;20137;-75
2022/03/15 00:37:49;;;;;;;4.77;2.03;;;10.00;99.90;;;;;;7387090;19;20135;-75
2022/03/15 00:40:16;;;;;;;3.53;2.23;;;10.00;99.90;;;;;;7389952;19;20587;-75
2022/03/15 00:42:46;;;;;;;2.73;1.93;;;9.90;99.90;;;;;;7387793;19;20123;-75
2022/03/15 00:45:12;;;;;;;4.67;2.50;;;10.00;99.90;;;;;;7388106;19;20149;-75
2022/03/15 00:47:38;;;;;;;4.10;2.17;;;10.20;99.90;;;;;;7387611;19;20131;-74
2022/03/15 00:50:04;;;;;;;6.00;2.53;;;10.30;99.90;;;;;;7387263;19;20131;-75
2022/03/15 00:52:30;;;;;;;5.47;2.53;;;10.30;99.90;;;;;;7386239;19;20202;-74
2022/03/15 00:54:56;;;;;;;5.30;2.57;;;10.30;99.90;;;;;;7386724;19;20630;-74
2022/03/15 00:57:22;;;;;;;3.70;2.50;;;10.40;99.90;;;;;;7385979;19;20141;-76
2022/03/15 00:59:48;;;;;;;4.80;2.23;;;10.50;99.90;;;;;;7388548;19;20143;-76
2022/03/15 01:02:14;;;;;;;6.20;2.40;;;10.30;99.90;;;;;;7387970;19;20502;-75
2022/03/15 01:04:42;;;;;;;3.87;2.03;;;10.10;99.90;;;;;;7389515;19;20594;-78
2022/03/15 01:07:08;;;;;;;5.03;2.60;;;10.20;99.90;;;;;;7389912;19;20134;-76
2022/03/15 01:09:35;;;;;;;3.70;2.00;;;10.20;99.90;;;;;;7392638;19;20134;-76
2022/03/15 01:12:04;;;;;;;5.20;2.63;;;10.30;99.90;;;;;;7387891;19;20138;-77
2022/03/15 01:14:32;;;;;;;3.70;2.30;;;10.30;99.90;;;;;;7384461;19;20486;-75
2022/03/15 01:16:58;;;;;;;2.67;2.10;;;10.40;99.90;;;;;;7386096;19;20213;-75
2022/03/15 01:19:24;;;;;;;5.50;2.43;;;10.20;99.90;;;;;;7386608;19;20135;-77
2022/03/15 01:21:53;;;;;;;4.87;2.50;;;9.80;99.90;;;;;;7386845;19;20145;-74
2022/03/15 01:24:20;;;;;;;4.30;2.60;;;9.60;99.90;;;;;;7387641;19;20133;-75
2022/03/15 01:26:46;;;;;;;4.90;2.50;;;9.70;99.90;;;;;;7386436;19;20494;-76
2022/03/15 01:29:12;;;;;;;6.03;2.30;;;9.90;99.90;;;;;;7386072;19;20217;-75
2022/03/15 01:31:38;;;;;;;5.80;2.67;;;10.00;99.90;;;;;;7387555;19;20131;-76
2022/03/15 01:34:04;;;;;;;6.27;2.13;;;10.10;99.90;;;;;;7388856;19;20769;-75
2022/03/15 01:36:30;;;;;;;6.10;2.07;;;10.10;99.90;;;;;;7385380;19;20551;-74
2022/03/15 01:38:57;;;;;;;5.93;2.03;;;10.20;99.90;;;;;;7386298;19;20154;-75
2022/03/15 01:41:23;;;;;;;5.13;2.40;;;10.30;99.90;;;;;;7386409;19;20149;-75
2022/03/15 01:43:49;;;;;;;5.10;2.53;;;10.20;99.90;;;;;;7388626;19;20157;-76
2022/03/15 01:46:19;;;;;;;7.20;2.63;;;10.20;99.90;;;;;;7386219;19;20135;-75
2022/03/15 01:48:44;;;;;;;4.03;2.27;;;10.30;99.90;;;;;;7384166;19;20155;-75
2022/03/15 01:51:14;;;;;;;5.37;2.13;;;10.30;99.90;;;;;;7386384;19;20130;-77
2022/03/15 01:53:42;;;;;;;7.30;2.80;;;10.30;99.90;;;;;;7387942;19;20131;-76
2022/03/15 01:56:08;;;;;;;6.13;2.60;;;10.30;99.90;;;;;;7385122;19;20131;-76
2022/03/15 01:58:34;;;;;;;4.93;2.30;;;10.10;99.90;;;;;;7387300;19;20228;-75
2022/03/15 02:01:01;;;;;;;4.80;2.20;;;10.10;99.90;;;;;;7386686;19;20142;-74
2022/03/15 02:03:27;;;;;;;5.27;2.90;;;10.20;99.90;;;;;;7392274;19;20163;-75
2022/03/15 02:05:52;;;;;;;7.87;2.30;;;10.20;99.90;;;;;;7388869;19;20134;-74
2022/03/15 02:08:18;;;;;;;4.43;2.33;;;10.30;99.90;;;;;;7388786;19;20624;-75
2022/03/15 02:10:44;;;;;;;4.63;2.30;;;10.30;99.90;;;;;;7390531;19;20131;-74
2022/03/15 02:13:10;;;;;;;6.37;2.77;;;10.30;99.90;;;;;;7387611;19;20150;-74
2022/03/15 02:15:37;;;;;;;5.43;2.90;;;10.20;99.90;;;;;;7389094;19;20131;-74
2022/03/15 02:18:04;;;;;;;4.97;2.73;;;10.20;99.90;;;;;;7388818;19;20134;-75
2022/03/15 02:20:30;;;;;;;4.60;2.90;;;10.20;99.90;;;;;;7387954;19;20141;-75
2022/03/15 02:22:57;;;;;;;3.80;2.77;;;10.10;99.90;;;;;;7386527;19;20142;-76
2022/03/15 02:25:24;;;;;;;4.90;2.60;;;10.10;99.90;;;;;;7385011;19;20123;-76
2022/03/15 02:27:51;;;;;;;3.97;2.43;;;10.10;99.90;;;;;;7386752;19;20142;-75
2022/03/15 02:30:17;;;;;;;4.90;2.90;;;10.10;99.90;;;;;;7387879;19;20150;-75
2022/03/15 02:32:44;;;;;;;3.60;2.70;;;10.10;99.90;;;;;;7387449;19;20574;-74
2022/03/15 02:35:10;;;;;;;4.30;2.67;;;10.10;99.90;;;;;;7390469;19;20150;-75
2022/03/15 02:37:36;;;;;;;4.70;2.67;;;10.10;99.90;;;;;;7388737;19;20139;-74
2022/03/15 02:40:03;;;;;;;5.30;3.10;;;10.10;99.90;;;;;;7385684;19;20147;-75
2022/03/15 02:42:29;;;;;;;4.87;3.10;;;10.10;99.90;;;;;;7387890;19;20151;-75
2022/03/15 02:44:55;;;;;;;8.60;3.00;;;10.10;99.90;;;;;;7387430;19;20155;-74
2022/03/15 02:47:21;;;;;;;4.50;2.40;;;10.00;99.90;;;;;;7384606;19;20189;-75
2022/03/15 02:49:47;;;;;;;6.20;2.60;;;10.10;99.90;;;;;;7387582;19;20130;-75
2022/03/15 02:52:14;;;;;;;3.73;2.33;;;10.10;99.90;;;;;;7389084;19;20115;-75
2022/03/15 02:54:41;;;;;;;6.30;3.17;;;9.90;99.90;;;;;;7385662;19;20157;-73
2022/03/15 02:57:10;;;;;;;3.43;2.47;;;10.00;99.90;;;;;;7387718;19;20165;-75
2022/03/15 02:59:39;;;;;;;4.43;2.53;;;9.90;99.90;;;;;;7389727;19;20511;-75
2022/03/15 03:02:06;;;;;;;3.80;2.40;;;9.60;99.90;;;;;;7391302;19;20135;-74
2022/03/15 03:04:32;;;;;;;4.10;2.13;;;9.80;99.90;;;;;;7385081;19;20609;-73
2022/03/15 03:06:59;;;;;;;4.73;2.20;;;9.80;99.90;;;;;;7388337;19;20142;-75
2022/03/15 03:09:25;;;;;;;3.70;2.60;;;9.90;99.90;;;;;;7386675;19;20901;-75
2022/03/15 03:11:51;;;;;;;6.53;2.60;;;10.10;99.90;;;;;;7385058;19;20177;-75
2022/03/15 03:14:22;;;;;;;5.73;2.77;;;9.90;99.90;;;;;;7386441;19;20138;-75
2022/03/15 03:16:47;;;;;;;3.70;2.17;;;9.60;99.90;;;;;;7386274;19;20539;-76
2022/03/15 03:19:13;;;;;;;4.30;2.33;;;9.60;99.90;;;;;;7384383;19;20139;-75
2022/03/15 03:21:40;;;;;;;6.17;2.77;;;9.80;99.90;;;;;;7383897;19;20873;-75
2022/03/15 03:24:09;;;;;;;4.77;2.40;;;9.90;99.90;;;;;;7384204;19;20138;-75
2022/03/15 03:26:37;;;;;;;4.30;2.37;;;10.10;99.90;;;;;;7385306;19;20134;-75
2022/03/15 03:29:10;;;;;;;4.93;2.70;;;10.10;99.90;;;;;;7381538;19;20187;-73
2022/03/15 03:31:42;;;;;;;7.00;2.37;;;10.00;99.90;;;;;;7386546;19;20234;-75
2022/03/15 03:34:09;;;;;;;5.00;2.70;;;10.10;99.90;;;;;;7383003;19;20134;-74
2022/03/15 03:36:36;;;;;;;3.60;2.10;;;9.90;99.90;;;;;;7382935;19;20162;-75
2022/03/15 03:39:06;;;;;;;6.83;2.57;;;9.90;99.90;;;;;;7391467;19;20606;-74
2022/03/15 03:41:32;;;;;;;6.73;2.67;;;10.00;99.90;;;;;;7392840;19;20130;-74
2022/03/15 03:43:58;;;;;;;4.27;2.67;;;10.00;99.90;;;;;;7392916;19;20928;-76
2022/03/15 03:46:24;;;;;;;7.57;2.50;;;10.00;99.90;;;;;;7390876;19;20145;-74
2022/03/15 03:48:51;;;;;;;4.10;2.83;;;10.00;99.90;;;;;;7391346;19;20130;-74
2022/03/15 03:51:18;;;;;;;7.03;3.13;;;9.90;99.90;;;;;;7390509;19;20142;-73
2022/03/15 03:53:44;;;;;;;4.90;2.80;;;10.00;99.90;;;;;;7390670;19;20123;-74
2022/03/15 03:56:09;;;;;;;5.60;2.73;;;9.90;99.90;;;;;;7389704;19;20142;-75
2022/03/15 03:58:35;;;;;;;4.03;2.90;;;9.80;99.90;;;;;;7392729;19;20495;-76
2022/03/15 04:01:02;;;;;;;3.80;2.50;;;9.80;99.90;;;;;;7391136;19;20602;-74
2022/03/15 04:03:29;;;;;;;5.83;2.57;;;9.70;99.90;;;;;;7390843;19;20126;-75
2022/03/15 04:05:56;;;;;;;4.03;3.00;;;9.60;99.90;;;;;;7392766;19;20131;-74
2022/03/15 04:08:23;;;;;;;6.37;2.50;;;9.30;99.90;;;;;;7389217;19;20123;-74
2022/03/15 04:10:50;;;;;;;4.87;2.53;;;9.70;99.90;;;;;;7394653;19;20151;-76
2022/03/15 04:13:18;;;;;;;7.10;2.93;;;9.70;99.90;;;;;;7390780;19;20129;-75
2022/03/15 04:15:51;;;;;;;5.30;3.20;;;9.80;99.90;;;;;;7391827;19;20151;-75
2022/03/15 04:18:17;;;;;;;4.83;2.70;;;9.90;99.90;;;;;;7393470;19;20134;-75
2022/03/15 04:20:43;;;;;;;7.27;2.67;;;9.90;99.90;;;;;;7391636;19;20133;-72
2022/03/15 04:23:10;;;;;;;4.60;2.43;;;10.00;99.90;;;;;;7390510;19;20135;-75
2022/03/15 04:25:37;;;;;;;6.13;2.23;;;9.90;99.90;;;;;;7391331;19;20130;-74
2022/03/15 04:28:03;;;;;;;4.00;1.50;;;9.80;99.90;;;;;;7389889;19;20177;-75
2022/03/15 04:30:30;;;;;;;5.60;2.03;;;9.80;99.90;;;;;;7389467;19;20155;-74
2022/03/15 04:32:56;;;;;;;3.33;1.97;;;9.80;99.90;;;;;;7390663;19;20127;-75
2022/03/15 04:35:22;;;;;;;2.63;1.90;;;9.90;99.90;;;;;;7391497;19;20182;-75
2022/03/15 04:37:52;;;;;;;4.87;1.87;;;10.00;99.90;;;;;;7388579;19;20126;-75
2022/03/15 04:40:19;;;;;;;3.00;1.60;;;9.90;99.90;;;;;;7389263;19;20127;-75
2022/03/15 04:42:54;;;;;;;5.60;1.90;;;9.90;99.90;;;;;;7392487;19;20130;-75
2022/03/15 04:45:21;;;;;;;2.43;1.90;;;9.90;99.90;;;;;;7390689;19;20147;-75
2022/03/15 04:47:47;;;;;;;9.70;2.00;;;10.00;99.90;;;;;;7387682;19;20157;-73
2022/03/15 04:50:13;;;;;;;3.37;1.87;;;9.70;99.90;;;;;;7393504;19;20194;-73
2022/03/15 04:52:38;;;;;;;7.17;2.50;;;9.90;99.90;;;;;;7391792;19;20142;-74
2022/03/15 04:55:06;;;;;;;4.10;2.27;;;9.90;99.90;;;;;;7389357;19;20127;-76
2022/03/15 04:57:32;;;;;;;3.03;1.90;;;9.90;99.90;;;;;;7389851;19;20496;-74
2022/03/15 04:59:58;;;;;;;3.40;2.10;;;9.80;99.90;;;;;;7388390;19;20157;-75
2022/03/15 05:02:24;;;;;;;3.57;2.50;;;9.70;99.90;;;;;;7388581;19;20119;-74
2022/03/15 05:04:51;;;;;;;3.27;2.50;;;9.50;99.90;;;;;;7388810;19;20126;-73
2022/03/15 05:07:18;;;;;;;4.27;2.53;;;9.50;99.90;;;;;;7387852;19;20138;-74
2022/03/15 05:12:28;;;;;;;5.67;2.87;;;9.60;99.90;;;;;;7389779;19;20156;-75
2022/03/15 05:14:54;;;;;;;5.40;3.00;;;9.70;99.90;;;;;;7388603;19;20194;-74
2022/03/15 05:17:20;;;;;;;3.77;2.50;;;9.60;99.90;;;;;;7389730;19;20134;-76
2022/03/15 05:19:47;;;;;;;3.60;2.70;;;9.40;99.90;;;;;;7389364;19;20142;-75
2022/03/15 05:22:13;;;;;;;6.43;2.30;;;9.40;99.90;;;;;;7388682;19;20141;-73
2022/03/15 05:24:38;;;;;;;6.83;2.80;;;9.40;99.90;;;;;;7389169;19;20123;-74
2022/03/15 05:27:04;;;;;;;4.23;2.53;;;9.30;99.90;;;;;;7389102;19;20141;-75
2022/03/15 05:29:30;;;;;;;5.50;2.50;;;8.80;99.90;;;;;;7388023;19;20147;-75
2022/03/15 05:31:55;;;;;;;4.77;2.27;;;8.90;99.90;;;;;;7390843;19;20131;-73
2022/03/15 05:34:21;;;;;;;6.77;2.80;;;9.20;99.90;;;;;;7388915;19;20888;-75
2022/03/15 05:36:48;;;;;;;4.13;2.70;;;9.50;99.90;;;;;;7389586;19;20171;-73
2022/03/15 05:39:14;;;;;;;6.60;3.00;;;9.60;99.90;;;;;;7386884;19;20131;-76
2022/03/15 05:41:40;;;;;;;4.57;3.27;;;9.60;99.90;;;;;;7387487;19;20142;-74
2022/03/15 05:44:07;;;;;;;5.53;3.30;;;9.70;99.90;;;;;;7388310;19;20134;-74
2022/03/15 05:46:34;;;;;;;5.63;2.90;;;9.70;99.90;;;;;;7387327;19;20154;-74
2022/03/15 05:49:01;;;;;;;8.43;3.10;;;9.40;99.90;;;;;;7386414;19;20135;-75
2022/03/15 05:51:27;;;;;;;5.67;4.20;;;9.30;99.90;;;;;;7388214;19;20142;-75
2022/03/15 05:53:53;;;;;;;6.23;3.30;;;9.20;99.90;;;;;;7386613;19;20143;-75
2022/03/15 05:56:18;;;;;;;4.30;3.07;;;8.90;99.90;;;;;;7390574;19;20141;-74
2022/03/15 05:58:44;;;;;;;3.63;2.70;;;9.20;99.90;;;;;;7386238;19;20610;-74
2022/03/15 06:01:10;;;;;;;6.07;3.17;;;9.30;99.90;;;;;;7386213;19;20139;-75
2022/03/15 06:03:36;;;;;;;7.07;3.20;;;9.30;99.90;;;;;;7386206;19;20530;-74
2022/03/15 06:06:02;;;;;;;7.53;3.60;;;9.50;99.90;;;;;;7388509;19;20960;-73
2022/03/15 06:08:28;;;;;;;5.60;3.33;;;9.80;99.90;;;;;;7384950;19;20126;-74
2022/03/15 06:10:53;;;;;;;5.37;3.30;;;9.80;99.90;;;;;;7385733;19;20138;-75
2022/03/15 06:13:19;;;;;;;5.93;3.30;;;9.80;99.90;;;;;;7386584;19;20154;-76
2022/03/15 06:15:45;;;;;;;4.40;2.70;;;9.80;99.90;;;;;;7385074;19;20209;-75
2022/03/15 06:18:11;;;;;;;5.47;3.20;;;9.80;99.90;;;;;;7386984;19;20141;-74
2022/03/15 06:20:36;;;;;;;9.33;3.43;;;9.80;99.90;;;;;;7384464;19;20134;-74
2022/03/15 06:23:03;;;;;;;8.03;3.60;;;9.90;99.90;;;;;;7387981;19;20150;-74
2022/03/15 06:25:30;;;;;;;6.40;3.57;;;9.90;99.90;;;;;;7383986;19;20138;-75
2022/03/15 06:27:56;;;;;;;5.60;3.20;;;9.90;99.90;;;;;;7383781;19;20146;-75
2022/03/15 06:30:22;;;;;;;6.57;3.10;;;9.90;99.90;;;;;;7384808;19;20231;-74
2022/03/15 06:32:50;;;;;;;5.70;3.20;;;9.90;99.90;;;;;;7390587;19;20139;-75
2022/03/15 06:35:16;;;;;;;7.17;3.43;;;9.90;99.90;;;;;;7385044;19;20143;-74
2022/03/15 06:37:45;;;;;;;6.53;3.40;;;10.00;99.90;;;;;;7388388;19;20130;-75
2022/03/15 06:40:12;;;;;;;6.80;3.40;;;9.70;99.90;;;;;;7385112;19;20611;-75
2022/03/15 06:42:38;;;;;;;8.00;3.30;;;9.80;99.90;;;;;;7387405;19;20613;-73
2022/03/15 06:45:06;;;;;;;7.97;3.77;;;9.90;99.90;;;;;;7384975;19;20164;-73
2022/03/15 06:47:34;;;;;;;6.30;3.40;;;9.90;99.90;;;;;;7385473;19;20141;-74
2022/03/15 06:50:00;;;;;;;4.27;2.77;;;10.00;99.90;;;;;;7387242;19;20130;-74
2022/03/15 06:52:25;;;;;;;5.03;3.27;;;10.00;99.90;;;;;;7386487;19;20143;-74
2022/03/15 06:54:51;;;;;;;7.07;2.97;;;10.10;99.90;;;;;;7386690;19;20634;-74
2022/03/15 06:57:17;;;;;;;9.57;3.27;;;10.20;99.90;;;;;;7387427;19;20651;-75
2022/03/15 06:59:43;;;;;;;8.20;3.57;;;10.30;99.90;;;;;;7389840;19;20134;-72
2022/03/15 07:02:11;;;;;;;5.87;3.97;;;10.20;99.90;;;;;;7383827;19;20202;-75
2022/03/15 07:04:36;;;;;;;8.67;3.63;;;10.10;99.90;;;;;;7384570;19;20597;-74
2022/03/15 07:07:02;;;;;;;9.00;3.57;;;10.10;99.90;;;;;;7386229;19;20118;-77
2022/03/15 07:09:28;;;;;;;7.67;3.20;;;10.20;99.90;;;;;;7383995;19;21014;-74
2022/03/15 07:11:54;;;;;;;5.23;2.93;;;10.20;99.90;;;;;;7386509;19;20133;-73
2022/03/15 07:14:20;;;;;;;8.13;3.00;;;10.20;99.90;;;;;;7392964;19;20131;-76
2022/03/15 07:16:45;;;;;;;3.97;2.70;;;10.00;99.90;;;;;;7391162;19;20251;-74
2022/03/15 07:19:11;;;;;;;6.30;3.40;;;10.10;99.90;;;;;;7392772;19;20153;-73
2022/03/15 07:21:37;;;;;;;5.03;2.90;;;10.20;99.90;;;;;;7391566;19;20131;-74
2022/03/15 07:24:03;;;;;;;8.00;2.83;;;10.40;99.90;;;;;;7391857;19;20487;-73
2022/03/15 07:26:29;;;;;;;9.57;3.40;;;10.20;99.90;;;;;;7387119;19;20455;-74
2022/03/15 07:28:56;;;;;;;5.57;3.30;;;10.30;99.90;;;;;;7390260;19;20161;-77
2022/03/15 07:31:22;;;;;;;8.53;3.20;;;10.40;99.90;;;;;;7391466;19;20197;-76
2022/03/15 07:33:47;;;;;;;7.57;3.27;;;10.10;99.90;;;;;;7393215;19;20210;-75
2022/03/15 07:36:14;;;;;;;6.27;3.13;;;10.20;99.90;;;;;;7390067;19;20219;-74
2022/03/15 07:38:40;;;;;;;8.23;3.37;;;10.30;99.90;;;;;;7390850;19;20229;-74
2022/03/15 07:41:06;;;;;;;16.13;7.40;;;10.40;99.90;;;;;;7391399;19;20219;-76
2022/03/15 07:43:31;;;;;;;7.10;3.60;;;10.40;99.90;;;;;;7396852;19;20202;-76
2022/03/15 07:45:57;;;;;;;10.17;3.57;;;10.40;99.90;;;;;;7389978;19;20135;-74
2022/03/15 07:48:23;;;;;;;8.53;2.93;;;10.40;99.90;;;;;;7390755;19;20151;-74
2022/03/15 07:50:51;;;;;;;7.47;2.60;;;10.50;99.90;;;;;;7390203;19;20134;-76
2022/03/15 07:53:17;;;;;;;5.87;3.07;;;10.60;99.90;;;;;;7391142;19;20151;-74
2022/03/15 07:55:43;;;;;;;6.83;2.40;;;10.60;99.90;;;;;;7390727;19;20714;-74
2022/03/15 07:58:09;;;;;;;8.07;3.10;;;10.50;99.90;;;;;;7391124;19;20495;-74
2022/03/15 08:00:35;;;;;;;5.13;2.80;;;10.60;99.90;;;;;;7388114;19;20644;-75
2022/03/15 08:03:01;;;;;;;9.17;2.40;;;10.80;99.90;;;;;;7395253;19;20138;-74
2022/03/15 08:05:28;;;;;;;13.77;2.87;;;10.90;99.90;;;;;;7392102;19;20144;-76
2022/03/15 08:07:56;;;;;;;6.30;2.90;;;11.10;99.90;;;;;;7390461;19;20222;-75
2022/03/15 08:10:22;;;;;;;6.57;3.03;;;11.00;99.90;;;;;;7393772;19;20150;-75
2022/03/15 08:12:48;;;;;;;7.00;2.87;;;11.10;99.90;;;;;;7391572;19;20846;-76
2022/03/15 08:15:14;;;;;;;6.63;3.33;;;11.00;99.90;;;;;;7390518;19;20157;-75
2022/03/15 08:17:40;;;;;;;7.30;3.30;;;11.10;99.90;;;;;;7389236;19;20130;-75
2022/03/15 08:20:07;;;;;;;7.00;3.60;;;11.20;99.90;;;;;;7392024;19;20122;-74
2022/03/15 08:22:34;;;;;;;6.70;3.20;;;11.20;99.90;;;;;;7389154;19;20154;-76
2022/03/15 08:25:02;;;;;;;5.13;2.60;;;11.40;99.90;;;;;;7387490;19;20186;-74
2022/03/15 08:27:30;;;;;;;7.83;2.90;;;11.50;99.90;;;;;;7387629;19;20134;-76
2022/03/15 08:29:55;;;;;;;10.97;3.53;;;11.40;99.90;;;;;;7387636;19;20174;-75
2022/03/15 08:32:21;;;;;;;7.17;2.80;;;11.60;99.90;;;;;;7390773;19;20156;-75
2022/03/15 08:34:47;;;;;;;2.97;2.03;;;11.50;99.90;;;;;;7390868;19;20603;-75
2022/03/15 08:37:14;;;;;;;4.33;2.33;;;11.50;99.90;;;;;;7388632;19;20985;-77
2022/03/15 08:39:39;;;;;;;3.50;1.93;;;11.50;99.90;;;;;;7389058;19;20149;-75
2022/03/15 08:42:05;;;;;;;3.43;2.20;;;11.60;99.90;;;;;;7390177;19;20135;-74
2022/03/15 08:44:31;;;;;;;4.70;2.40;;;11.70;99.90;;;;;;7388639;19;20151;-76
2022/03/15 08:46:57;;;;;;;6.50;2.07;;;11.90;99.90;;;;;;7390395;19;20135;-76
2022/03/15 08:49:23;;;;;;;3.67;2.23;;;12.00;99.90;;;;;;7387482;19;20139;-76
2022/03/15 08:51:49;;;;;;;3.53;2.00;;;12.10;99.90;;;;;;7387686;19;20131;-74
2022/03/15 08:54:15;;;;;;;4.43;2.27;;;12.20;99.90;;;;;;7388142;19;20155;-74
2022/03/15 08:56:42;;;;;;;3.03;1.80;;;12.20;99.90;;;;;;7388331;19;20536;-76
2022/03/15 08:59:16;;;;;;;5.47;1.77;;;12.30;99.90;;;;;;7388522;19;20150;-75
2022/03/15 09:01:43;;;;;;;6.97;1.67;;;12.40;99.90;;;;;;7387927;19;20214;-75
2022/03/15 09:04:10;;;;;;;4.73;1.70;;;12.20;99.90;;;;;;7387381;19;20226;-75
2022/03/15 09:06:35;;;;;;;4.07;1.90;;;12.30;99.90;;;;;;7390711;19;20211;-76
2022/03/15 09:09:01;;;;;;;5.63;1.70;;;12.20;99.90;;;;;;7387555;19;20135;-74
2022/03/15 09:11:30;;;;;;;5.47;2.87;;;12.30;99.90;;;;;;7389586;19;20137;-75
2022/03/15 09:13:57;;;;;;;3.77;1.63;;;12.30;99.90;;;;;;7388538;19;20138;-75
2022/03/15 09:16:23;;;;;;;2.80;1.65;;;12.40;99.90;;;;;;7389454;19;20482;-77
2022/03/15 09:18:50;;;;;;;6.13;1.93;;;12.40;99.90;;;;;;7387395;19;20137;-75
2022/03/15 09:21:18;;;;;;;3.83;1.63;;;12.30;99.90;;;;;;7387632;19;20139;-75
2022/03/15 09:23:44;;;;;;;3.27;2.33;;;12.30;99.90;;;;;;7388123;19;20143;-75
2022/03/15 09:26:10;;;;;;;2.97;1.80;;;12.40;99.90;;;;;;7387806;19;20139;-74
2022/03/15 09:28:37;;;;;;;6.20;2.73;;;12.20;99.90;;;;;;7385868;19;20755;-76
2022/03/15 09:31:03;;;;;;;4.20;1.70;;;12.20;99.90;;;;;;7386853;19;20514;-77
2022/03/15 09:33:29;;;;;;;3.40;1.97;;;12.30;99.90;;;;;;7387548;19;20559;-75
2022/03/15 09:35:57;;;;;;;5.30;1.73;;;12.40;99.90;;;;;;7385394;19;20140;-76
2022/03/15 09:38:23;;;;;;;3.20;1.63;;;12.40;99.90;;;;;;7386834;19;20141;-76
2022/03/15 09:40:53;;;;;;;3.00;1.50;;;12.40;99.90;;;;;;7388166;19;20155;-75
2022/03/15 09:43:24;;;;;;;3.13;1.50;;;12.40;99.90;;;;;;7390479;19;20156;-76
2022/03/15 09:45:54;;;;;;;3.43;2.03;;;12.30;99.90;;;;;;7387394;19;20558;-75
2022/03/15 09:48:23;;;;;;;3.07;1.60;;;12.40;99.90;;;;;;7385384;19;20598;-75
2022/03/15 09:50:51;;;;;;;1.20;1.10;;;12.20;99.90;;;;;;7385053;19;20130;-76
2022/03/15 09:53:18;;;;;;;3.07;1.40;;;12.10;99.90;;;;;;7386268;19;20139;-75
2022/03/15 09:55:45;;;;;;;1.83;1.70;;;12.30;99.90;;;;;;7385421;19;20138;-74
2022/03/15 09:58:17;;;;;;;3.87;2.13;;;12.30;99.90;;;;;;7386967;19;20177;-75
2022/03/15 10:00:43;;;;;;;5.13;3.13;;;12.30;99.90;;;;;;7385728;19;20479;-76
2022/03/15 10:03:09;;;;;;;6.33;3.03;;;12.30;99.90;;;;;;7386312;19;20133;-75
2022/03/15 10:05:36;;;;;;;2.42;1.63;;;12.20;99.90;;;;;;7389616;19;20134;-76
2022/03/15 10:08:02;;;;;;;2.57;1.73;;;12.30;99.90;;;;;;7384292;19;20182;-76
2022/03/15 10:10:28;;;;;;;4.03;2.40;;;12.30;99.90;;;;;;7389241;19;20138;-75
2022/03/15 10:12:55;;;;;;;2.40;1.63;;;12.30;99.90;;;;;;7386397;19;20130;-76
2022/03/15 10:15:22;;;;;;;2.40;1.40;;;12.20;99.90;;;;;;7386724;19;20142;-75
2022/03/15 10:17:53;;;;;;;2.67;1.50;;;12.20;99.90;;;;;;7384899;19;20202;-75
2022/03/15 10:20:25;;;;;;;2.83;2.13;;;12.20;99.90;;;;;;7386342;19;20135;-75
2022/03/15 10:22:54;;;;;;;3.40;2.20;;;12.30;99.90;;;;;;7385619;19;20131;-75
2022/03/15 10:25:22;;;;;;;5.33;2.53;;;12.30;99.90;;;;;;7385820;19;20204;-75
2022/03/15 10:27:53;;;;;;;4.03;2.40;;;12.30;99.90;;;;;;7383736;19;20582;-76
2022/03/15 10:30:19;;;;;;;3.80;2.37;;;12.40;99.90;;;;;;7387623;19;20217;-75
2022/03/15 10:32:46;;;;;;;3.83;2.87;;;12.40;99.90;;;;;;7387344;19;20154;-76
2022/03/15 10:35:16;;;;;;;3.20;2.23;;;12.40;99.90;;;;;;7390556;19;20201;-75
2022/03/15 10:37:42;;;;;;;5.73;2.50;;;12.30;99.90;;;;;;7386391;19;20141;-76
2022/03/15 10:40:08;;;;;;;4.20;2.87;;;12.30;99.90;;;;;;7386720;19;20274;-77
2022/03/15 10:42:42;;;;;;;5.40;3.20;;;12.30;99.90;;;;;;7389289;19;20590;-76
2022/03/15 10:45:34;;;;;;;5.20;2.97;;;12.30;99.90;;;;;;7386921;19;20526;-76
2022/03/15 10:48:01;;;;;;;6.77;2.83;;;12.20;99.90;;;;;;7384611;19;20159;-76
2022/03/15 10:50:33;;;;;;;5.13;2.90;;;12.20;99.90;;;;;;7386194;19;20130;-75
2022/03/15 10:53:07;;;;;;;4.57;3.00;;;12.20;99.90;;;;;;7383935;19;20606;-75
2022/03/15 10:55:34;;;;;;;7.40;3.00;;;12.10;99.90;;;;;;7386292;19;20137;-75
2022/03/15 10:58:05;;;;;;;6.37;4.00;;;12.10;99.90;;;;;;7385196;19;20515;-74
2022/03/15 11:00:37;;;;;;;6.40;2.80;;;12.00;99.90;;;;;;7385763;19;20130;-77
2022/03/15 11:03:23;;;;;;;5.70;3.30;;;12.00;99.90;;;;;;7383804;19;20135;-75
2022/03/15 11:05:50;;;;;;;5.83;3.17;;;12.00;99.90;;;;;;7387874;19;20206;-75
2022/03/15 11:08:17;;;;;;;9.13;3.33;;;11.90;99.90;;;;;;7384151;19;20134;-74
2022/03/15 11:10:49;;;;;;;5.47;3.30;;;12.00;99.90;;;;;;7389293;19;20138;-74
2022/03/15 11:13:17;;;;;;;6.77;2.80;;;11.90;99.90;;;;;;7385456;19;20194;-75
2022/03/15 11:15:53;;;;;;;4.73;3.10;;;11.90;99.90;;;;;;7383751;19;20161;-76
2022/03/15 11:18:19;;;;;;;4.47;2.57;;;11.90;99.90;;;;;;7386044;19;20135;-74
2022/03/15 11:20:48;;;;;;;6.63;3.00;;;11.90;99.90;;;;;;7385164;19;20606;-76
2022/03/15 11:23:15;;;;;;;4.60;2.90;;;11.80;99.90;;;;;;7385245;19;20210;-75
2022/03/15 11:25:48;;;;;;;4.83;3.10;;;11.90;99.90;;;;;;7382624;19;20135;-74
2022/03/15 11:28:39;;;;;;;4.27;3.10;;;11.90;99.90;;;;;;7384629;19;20177;-76
2022/03/15 11:31:05;;;;;;;7.70;3.57;;;11.80;99.90;;;;;;7383149;19;20158;-75
2022/03/15 11:33:31;;;;;;;5.47;2.70;;;11.70;99.90;;;;;;7385183;19;20134;-76
2022/03/15 11:36:04;;;;;;;6.13;3.13;;;11.60;99.90;;;;;;7382806;19;20638;-76
2022/03/15 11:38:31;;;;;;;5.33;3.30;;;11.70;99.90;;;;;;7383440;19;20139;-74
2022/03/15 11:40:57;;;;;;;3.93;2.70;;;11.80;99.90;;;;;;7385118;19;20131;-75
2022/03/15 11:43:50;;;;;;;4.30;2.87;;;11.70;99.90;;;;;;7388224;19;20617;-75
2022/03/15 11:46:35;;;;;;;3.90;2.73;;;11.70;99.90;;;;;;7382861;19;20138;-75
2022/03/15 11:49:27;;;;;;;5.47;3.40;;;11.70;99.90;;;;;;7382334;19;20177;-75
2022/03/15 11:52:26;;;;;;;5.03;2.80;;;11.70;99.90;;;;;;7384210;19;20138;-75
2022/03/15 11:55:19;;;;;;;5.23;3.37;;;11.70;99.90;;;;;;7386393;19;20123;-78
2022/03/15 11:57:51;;;;;;;5.17;2.73;;;11.60;99.90;;;;;;7384896;19;20686;-76
2022/03/15 12:00:38;;;;;;;3.50;2.70;;;11.60;99.90;;;;;;7391661;19;20158;-75
2022/03/15 12:03:09;;;;;;;5.87;3.00;;;11.70;99.90;;;;;;7391919;19;20139;-78
2022/03/15 12:06:03;;;;;;;6.17;3.27;;;11.80;99.90;;;;;;7392373;19;20158;-76
2022/03/15 12:08:28;;;;;;;4.37;2.90;;;11.70;99.90;;;;;;7389507;19;20151;-75
2022/03/15 12:10:56;;;;;;;5.20;3.10;;;11.50;99.90;;;;;;7391001;19;20434;-76
2022/03/15 12:13:45;;;;;;;5.37;3.30;;;11.40;99.90;;;;;;7390940;19;20194;-74
2022/03/15 12:16:15;;;;;;;5.87;3.30;;;11.30;99.90;;;;;;7389506;19;20146;-76
2022/03/15 12:18:48;;;;;;;6.63;3.20;;;11.30;99.90;;;;;;7389951;19;20127;-75
2022/03/15 12:21:15;;;;;;;4.23;3.13;;;11.40;99.90;;;;;;7390024;19;20150;-76
2022/03/15 12:23:46;;;;;;;6.17;4.07;;;11.50;99.90;;;;;;7389271;19;20135;-76
2022/03/15 12:26:31;;;;;;;34.87;19.00;;;11.60;99.90;;;;;;7389028;19;20154;-74
2022/03/15 12:29:03;;;;;;;6.80;4.53;;;11.60;99.90;;;;;;7387888;19;20514;-76
2022/03/15 12:31:39;;;;;;;5.67;3.33;;;11.50;99.90;;;;;;7387434;19;20162;-75
2022/03/15 12:34:18;;;;;;;5.57;3.30;;;11.50;99.90;;;;;;7391624;19;20662;-74
2022/03/15 12:36:51;;;;;;;3.90;2.70;;;11.40;99.90;;;;;;7387717;19;20135;-75
2022/03/15 12:39:20;;;;;;;4.50;3.00;;;11.60;99.90;;;;;;7392380;19;20139;-75
2022/03/15 12:41:47;;;;;;;3.77;2.90;;;11.40;99.90;;;;;;7390136;19;20141;-77
2022/03/15 12:44:14;;;;;;;4.50;3.30;;;11.40;99.90;;;;;;7389533;19;20218;-75
2022/03/15 12:46:42;;;;;;;5.07;3.13;;;11.60;99.90;;;;;;7390190;19;20141;-75
2022/03/15 12:49:16;;;;;;;4.70;2.57;;;11.60;99.90;;;;;;7389723;19;20139;-75
2022/03/15 12:51:44;;;;;;;4.97;2.90;;;11.70;99.90;;;;;;7389224;19;20583;-76
2022/03/15 12:54:11;;;;;;;3.93;2.70;;;11.70;99.90;;;;;;7390040;19;20143;-74
2022/03/15 12:56:58;;;;;;;5.87;3.07;;;11.70;99.90;;;;;;7387675;19;20126;-74